createdAt,value
2022-11-01T13:43:05.428Z,14.73
2022-11-01T13:45:53.492Z,16.35
2022-11-01T13:48:33.445Z,16.42
2022-11-01T13:51:19.452Z,16.80
2022-11-01T13:53:53.696Z,15.02
2022-11-01T13:56:29.526Z,17.23
2022-11-01T13:58:59.034Z,13.63
2022-11-01T14:01:31.248Z,17.88
2022-11-01T14:06:37.432Z,10.82
2022-11-01T14:09:31.332Z,18.63
2022-11-01T14:12:12.352Z,15.93
2022-11-01T14:14:52.633Z,14.23
2022-11-01T14:17:55.109Z,14.65
2022-11-01T14:20:50.212Z,13.70
2022-11-01T14:23:52.338Z,13.73
2022-11-01T14:26:45.171Z,17.38
2022-11-01T14:29:13.332Z,16.75
2022-11-01T14:31:44.978Z,16.92
2022-11-01T14:34:25.331Z,21.20
2022-11-01T14:36:57.352Z,16.02
2022-11-01T14:39:32.278Z,16.92
2022-11-01T14:42:03.219Z,21.55
2022-11-01T14:44:36.515Z,18.83
2022-11-01T14:47:23.731Z,19.00
2022-11-01T14:49:57.643Z,17.85
2022-11-01T14:52:32.099Z,16.75
2022-11-01T14:55:08.352Z,16.90
2022-11-01T14:57:36.317Z,19.65
2022-11-01T15:00:28.489Z,20.38
2022-11-01T15:05:32.440Z,20.08
2022-11-01T15:08:01.035Z,18.60
2022-11-01T15:10:40.496Z,17.75
2022-11-01T15:13:08.788Z,18.67
2022-11-01T15:15:39.376Z,18.70
2022-11-01T15:18:16.082Z,21.75
2022-11-01T15:20:49.367Z,21.13
2022-11-01T15:23:21.198Z,18.45
2022-11-01T15:25:52.586Z,22.33
2022-11-01T15:28:24.541Z,19.27
2022-11-01T15:30:58.489Z,20.15
2022-11-01T15:33:30.673Z,20.15
2022-11-01T15:36:00.733Z,25.95
2022-11-01T15:38:29.096Z,25.40
2022-11-01T15:40:57.206Z,24.70
2022-11-01T15:43:27.227Z,25.13
2022-11-01T15:45:58.767Z,27.15
2022-11-01T15:48:40.437Z,23.75
2022-11-01T15:51:16.064Z,23.20
2022-11-01T15:53:44.053Z,23.23
2022-11-01T15:56:18.141Z,28.02
2022-11-01T15:58:51.643Z,27.05
2022-11-01T16:01:23.085Z,23.95
2022-11-01T16:03:57.238Z,27.70
2022-11-01T16:06:28.752Z,31.35
2022-11-01T16:08:59.436Z,38.70
2022-11-01T16:11:30.517Z,29.60
2022-11-01T16:14:01.584Z,24.40
2022-11-01T16:16:29.639Z,23.40
2022-11-01T16:18:58.673Z,22.65
2022-11-01T16:21:31.796Z,25.13
2022-11-01T16:24:06.753Z,26.20
2022-11-01T16:26:52.150Z,23.98
2022-11-01T16:29:20.093Z,21.90
2022-11-01T16:32:09.309Z,25.25
2022-11-01T16:34:39.966Z,26.60
2022-11-01T16:37:19.318Z,23.20
2022-11-01T16:39:47.996Z,25.30
2022-11-01T16:42:16.976Z,31.45
2022-11-01T16:44:45.366Z,26.88
2022-11-01T16:47:15.195Z,28.50
2022-11-01T16:49:48.509Z,33.22
2022-11-01T16:52:17.266Z,33.60
2022-11-01T16:54:45.421Z,34.35
2022-11-01T16:57:25.855Z,35.78
2022-11-01T16:59:55.461Z,33.33
2022-11-01T17:02:26.734Z,34.58
2022-11-01T17:04:59.495Z,35.28
2022-11-01T17:07:27.612Z,39.45
2022-11-01T17:09:55.659Z,30.88
2022-11-01T17:12:23.690Z,36.97
2022-11-01T17:14:52.405Z,32.35
2022-11-01T17:17:24.519Z,35.72
2022-11-01T17:19:59.148Z,29.20
2022-11-01T17:22:34.308Z,33.17
2022-11-01T17:25:03.452Z,36.22
2022-11-01T17:27:31.835Z,34.15
2022-11-01T17:29:59.563Z,32.65
2022-11-01T17:32:27.623Z,32.75
2022-11-01T17:34:56.878Z,34.63
2022-11-01T17:37:27.180Z,39.47
2022-11-01T17:39:55.031Z,32.22
2022-11-01T17:42:23.603Z,31.45
2022-11-01T17:45:11.652Z,34.17
2022-11-01T17:47:39.728Z,37.03
2022-11-01T17:50:12.539Z,41.28
2022-11-01T17:52:40.880Z,38.05
2022-11-01T17:55:10.140Z,38.83
2022-11-01T17:57:38.019Z,42.30
2022-11-01T18:00:07.147Z,41.15
2022-11-01T18:02:35.650Z,43.75
2022-11-01T18:05:03.387Z,50.75
2022-11-01T18:07:37.679Z,44.65
2022-11-01T18:10:21.837Z,52.45
2022-11-01T18:13:01.109Z,46.58
2022-11-01T18:15:36.448Z,57.45
2022-11-01T18:18:24.608Z,40.25
2022-11-01T18:21:00.689Z,43.55
2022-11-01T18:23:31.347Z,43.30
2022-11-01T18:25:59.395Z,44.53
2022-11-01T18:28:30.079Z,46.78
2022-11-01T18:31:00.239Z,42.72
2022-11-01T18:33:35.333Z,40.47
2022-11-01T18:36:08.994Z,41.75
2022-11-01T18:38:44.097Z,44.05
2022-11-01T18:41:17.693Z,44.03
2022-11-01T18:43:45.616Z,40.97
2022-11-01T18:46:26.431Z,42.63
2022-11-01T18:49:00.243Z,37.10
2022-11-01T18:51:31.083Z,51.35
2022-11-01T18:54:21.444Z,45.38
2022-11-01T18:56:53.420Z,42.08
2022-11-01T18:59:30.176Z,46.50
2022-11-01T19:02:01.542Z,39.55
2022-11-01T19:04:32.413Z,45.30
2022-11-01T19:07:11.331Z,41.03
2022-11-01T19:09:43.873Z,33.63
2022-11-01T19:12:15.669Z,40.25
2022-11-01T19:14:44.581Z,38.65
2022-11-01T19:17:20.278Z,35.60
2022-11-01T19:19:48.363Z,41.03
2022-11-01T19:22:32.415Z,37.13
2022-11-01T19:25:03.091Z,44.10
2022-11-01T19:27:31.394Z,41.83
2022-11-01T19:29:59.900Z,36.38
2022-11-01T19:32:27.808Z,36.58
2022-11-01T19:34:57.512Z,37.80
2022-11-01T19:37:31.805Z,40.05
2022-11-01T19:40:14.340Z,47.42
2022-11-01T19:42:42.147Z,40.10
2022-11-01T19:45:28.891Z,45.60
2022-11-01T19:47:57.945Z,47.53
2022-11-01T19:50:29.142Z,41.83
2022-11-01T19:52:58.577Z,42.88
2022-11-01T19:55:38.144Z,42.90
2022-11-01T19:58:25.801Z,43.47
2022-11-01T20:01:19.646Z,42.00
2022-11-01T20:03:49.634Z,45.45
2022-11-01T20:06:21.788Z,48.28
2022-11-01T20:08:52.355Z,44.67
2022-11-01T20:11:21.859Z,57.30
2022-11-01T20:13:49.594Z,51.10
2022-11-01T20:16:17.958Z,54.00
2022-11-01T20:18:45.911Z,53.08
2022-11-01T20:21:13.818Z,53.35
2022-11-01T20:23:41.706Z,56.88
2022-11-01T20:26:12.019Z,60.67
2022-11-01T20:28:41.184Z,50.85
2022-11-01T20:31:09.423Z,59.08
2022-11-01T20:33:37.413Z,58.25
2022-11-01T20:36:11.026Z,59.05
2022-11-01T20:38:39.668Z,54.13
2022-11-01T20:41:07.809Z,65.60
2022-11-01T20:43:35.706Z,63.28
2022-11-01T20:46:05.362Z,61.38
2022-11-01T20:48:33.183Z,64.00
2022-11-01T20:51:01.232Z,66.50
2022-11-01T20:53:29.998Z,62.25
2022-11-01T20:55:58.200Z,65.43
2022-11-01T20:58:26.098Z,60.95
2022-11-01T21:00:54.156Z,59.67
2022-11-01T21:03:24.871Z,52.10
2022-11-01T21:05:52.792Z,55.13
2022-11-01T21:08:23.840Z,49.15
2022-11-01T21:10:55.100Z,50.33
2022-11-01T21:13:29.855Z,57.35
2022-11-01T21:15:59.339Z,60.67
2022-11-01T21:18:37.724Z,61.40
2022-11-01T21:21:28.270Z,53.40
2022-11-01T21:23:57.293Z,62.05
2022-11-01T21:26:30.761Z,59.60
2022-11-01T21:29:03.316Z,57.03
2022-11-01T21:31:32.839Z,64.30
2022-11-01T21:34:17.607Z,58.35
2022-11-01T21:36:47.811Z,54.80
2022-11-01T21:39:18.421Z,57.38
2022-11-01T21:41:48.253Z,57.40
2022-11-01T21:44:22.869Z,52.28
2022-11-01T21:46:52.604Z,56.83
2022-11-01T21:49:26.327Z,53.47
2022-11-01T21:51:55.664Z,59.05
2022-11-01T21:54:23.939Z,67.75
2022-11-01T21:56:52.190Z,64.95
2022-11-01T21:59:19.932Z,64.10
2022-11-01T22:01:49.404Z,58.95
2022-11-01T22:04:18.214Z,61.17
2022-11-01T22:06:48.839Z,55.33
2022-11-01T22:09:17.387Z,59.83
2022-11-01T22:11:45.684Z,55.70
2022-11-01T22:14:13.665Z,55.88
2022-11-01T22:16:41.816Z,58.83
2022-11-01T22:19:09.627Z,63.00
2022-11-01T22:21:37.722Z,62.15
2022-11-01T22:24:08.113Z,56.65
2022-11-01T22:26:36.253Z,60.45
2022-11-01T22:29:04.135Z,56.63
2022-11-01T22:31:32.423Z,57.38
2022-11-01T22:34:00.119Z,53.85
2022-11-01T22:36:29.855Z,54.22
2022-11-01T22:38:59.506Z,58.97
2022-11-01T22:41:33.171Z,52.25
2022-11-01T22:44:04.647Z,60.20
2022-11-01T22:46:44.635Z,54.85
2022-11-01T22:49:17.263Z,60.20
2022-11-01T22:51:46.794Z,61.28
2022-11-01T22:54:38.164Z,57.30
2022-11-01T22:57:16.245Z,51.80
2022-11-01T22:59:46.974Z,54.30
2022-11-01T23:02:28.647Z,56.33
2022-11-01T23:05:20.016Z,45.97
2022-11-01T23:07:49.985Z,48.10
2022-11-01T23:10:27.647Z,48.05
2022-11-01T23:13:19.582Z,44.65
2022-11-01T23:15:47.847Z,42.67
2022-11-01T23:18:22.150Z,43.42
2022-11-01T23:20:56.349Z,45.03
2022-11-01T23:23:25.435Z,47.05
2022-11-01T23:25:54.399Z,52.33
2022-11-01T23:28:24.651Z,45.67
2022-11-01T23:30:53.670Z,46.08
2022-11-01T23:33:23.468Z,46.63
2022-11-01T23:35:54.289Z,50.13
2022-11-01T23:38:24.913Z,49.60
2022-11-01T23:40:54.863Z,51.75
2022-11-01T23:43:28.408Z,50.88
2022-11-01T23:45:56.347Z,48.13
2022-11-01T23:48:25.212Z,52.08
2022-11-01T23:50:54.056Z,45.90
2022-11-01T23:53:31.960Z,50.20
2022-11-01T23:56:01.086Z,48.55
2022-11-01T23:58:33.652Z,48.90
